Time;durP1;ratioP1;P1;durP2;ratioP2;P2;SDS_P1;SDS_P2;PMS_P1;PMS_P2;Temp;Humidity;BMP_temperature;BMP_pressure;BME280_temperature;BME280_humidity;BME280_pressure;Samples;Min_cycle;Max_cycle;Signal;HPM_P1;HPM_P2
2023/05/19 00:00:53;;;;;;;;;;;;;;;7.00;100.00;102633.22;5024352;28;19935;-73
2023/05/19 00:03:20;;;;;;;;;;;;;;;6.96;100.00;102631.56;5024653;28;19960;-73
2023/05/19 00:05:45;;;;;;;;;;;;;;;6.97;100.00;102635.13;5026358;28;19953;-73
2023/05/19 00:08:11;;;;;;;;;;;;;;;6.87;100.00;102643.44;5017891;28;20015;-73
2023/05/19 00:10:36;;;;;;;;;;;;;;;6.78;100.00;102638.41;5034847;28;20154;-73
2023/05/19 00:13:01;;;;;;;;;;;;;;;6.81;100.00;102642.78;5033751;28;19929;-73
2023/05/19 00:15:27;;;;;;;;;;;;;;;6.79;100.00;102647.28;5036400;28;21280;-73
2023/05/19 00:17:54;;;;;;;;;;;;;;;6.83;100.00;102641.78;5034127;28;20229;-73
2023/05/19 00:20:19;;;;;;;;;;;;;;;6.83;100.00;102638.25;5031554;28;19920;-73
2023/05/19 00:22:44;;;;;;;;;;;;;;;6.68;100.00;102636.97;5024766;28;19920;-73
2023/05/19 00:25:10;;;;;;;;;;;;;;;6.74;100.00;102631.44;5031017;28;19924;-73
2023/05/19 00:27:35;;;;;;;;;;;;;;;6.75;100.00;102634.03;5025627;28;20352;-73
2023/05/19 00:30:00;;;;;;;;;;;;;;;6.75;100.00;102628.69;5031586;28;19921;-72
2023/05/19 00:32:25;;;;;;;;;;;;;;;6.79;100.00;102632.13;5008718;28;19992;-73
2023/05/19 00:34:51;;;;;;;;;;;;;;;6.90;100.00;102634.44;5035210;28;20367;-74
2023/05/19 00:37:16;;;;;;;;;;;;;;;6.93;100.00;102625.47;5031404;28;21051;-73
2023/05/19 00:39:42;;;;;;;;;;;;;;;6.98;100.00;102616.38;5027012;28;20386;-72
2023/05/19 00:42:07;;;;;;;;;;;;;;;7.08;100.00;102618.72;5027796;28;20420;-73
2023/05/19 00:44:32;;;;;;;;;;;;;;;7.15;100.00;102610.44;5030309;28;20290;-73
2023/05/19 00:46:57;;;;;;;;;;;;;;;7.06;100.00;102597.41;5033330;28;20298;-73
2023/05/19 00:49:22;;;;;;;;;;;;;;;7.22;100.00;102605.75;5027742;28;20716;-73
2023/05/19 00:51:48;;;;;;;;;;;;;;;7.24;100.00;102601.22;5030233;28;19931;-72
2023/05/19 00:54:13;;;;;;;;;;;;;;;7.32;100.00;102609.84;5029911;28;19967;-73
2023/05/19 00:56:38;;;;;;;;;;;;;;;7.32;100.00;102604.50;5028807;28;20020;-73
2023/05/19 00:59:03;;;;;;;;;;;;;;;7.40;100.00;102603.38;5029891;28;19944;-72
2023/05/19 01:01:31;;;;;;;;;;;;;;;7.38;100.00;102595.41;5031265;28;19921;-73
2023/05/19 01:03:57;;;;;;;;;;;;;;;7.40;100.00;102598.88;5031140;28;20046;-73
2023/05/19 01:06:24;;;;;;;;;;;;;;;7.45;100.00;102602.28;5031494;28;19924;-72
2023/05/19 01:08:49;;;;;;;;;;;;;;;7.48;100.00;102599.50;5031063;28;19920;-73
2023/05/19 01:11:14;;;;;;;;;;;;;;;7.44;100.00;102605.88;5028242;28;19920;-72
2023/05/19 01:13:40;;;;;;;;;;;;;;;7.44;100.00;102605.88;5029666;28;19925;-73
2023/05/19 01:16:14;;;;;;;;;;;;;;;7.43;100.00;102606.78;5031331;28;19924;-72
2023/05/19 01:18:45;;;;;;;;;;;;;;;7.50;100.00;102613.66;5032586;28;19928;-72
2023/05/19 01:21:35;;;;;;;;;;;;;;;7.52;100.00;102605.59;5063939;28;19921;-73
2023/05/19 01:24:07;;;;;;;;;;;;;;;7.53;100.00;102614.50;5031268;28;20015;-72
2023/05/19 01:26:51;;;;;;;;;;;;;;;7.55;100.00;102612.63;5032797;28;19930;-73
2023/05/19 01:29:35;;;;;;;;;;;;;;;7.57;100.00;102610.75;5027857;28;20023;-72
2023/05/19 01:32:00;;;;;;;;;;;;;;;7.53;100.00;102610.00;5030281;28;20352;-73
2023/05/19 01:34:26;;;;;;;;;;;;;;;7.52;100.00;102612.75;5045307;28;19975;-73
2023/05/19 01:36:53;;;;;;;;;;;;;;;7.49;100.00;102617.28;5030476;28;19983;-73
2023/05/19 01:39:18;;;;;;;;;;;;;;;7.54;100.00;102617.09;5028650;28;20035;-72
2023/05/19 01:41:43;;;;;;;;;;;;;;;7.52;100.00;102616.28;5027679;28;19920;-73
2023/05/19 01:44:09;;;;;;;;;;;;;;;7.50;100.00;102612.78;5032795;28;19956;-72
2023/05/19 01:46:34;;;;;;;;;;;;;;;7.47;100.00;102612.88;5029668;28;20051;-71
2023/05/19 01:48:59;;;;;;;;;;;;;;;7.45;100.00;102620.09;5027816;28;19925;-73
2023/05/19 01:51:25;;;;;;;;;;;;;;;7.41;100.00;102613.13;5030410;28;20244;-72
2023/05/19 01:53:50;;;;;;;;;;;;;;;7.39;100.00;102609.66;5027631;28;20463;-73
2023/05/19 01:56:16;;;;;;;;;;;;;;;7.42;100.00;102610.41;5031876;28;20381;-72
2023/05/19 01:58:45;;;;;;;;;;;;;;;7.38;100.00;102606.09;5026145;28;20158;-70
2023/05/19 02:01:15;;;;;;;;;;;;;;;7.38;100.00;102600.75;5013817;28;20387;-71
2023/05/19 02:03:41;;;;;;;;;;;;;;;7.39;100.00;102601.63;5026441;28;19928;-73
2023/05/19 02:06:09;;;;;;;;;;;;;;;7.37;100.00;102603.47;5045662;28;19925;-72
2023/05/19 02:08:41;;;;;;;;;;;;;;;7.38;100.00;102605.22;5032479;28;20387;-73
2023/05/19 02:11:06;;;;;;;;;;;;;;;7.42;100.00;102602.38;5029161;28;20334;-74
2023/05/19 02:13:32;;;;;;;;;;;;;;;7.43;100.00;102593.44;5030949;28;19962;-73
2023/05/19 02:15:59;;;;;;;;;;;;;;;7.40;100.00;102590.88;5037822;28;19928;-73
2023/05/19 02:18:24;;;;;;;;;;;;;;;7.41;100.00;102586.41;5035229;28;20712;-74
2023/05/19 02:20:50;;;;;;;;;;;;;;;7.33;100.00;102589.34;5033934;28;20069;-73
2023/05/19 02:23:15;;;;;;;;;;;;;;;7.38;100.00;102590.03;5031431;28;19967;-73
2023/05/19 02:25:40;;;;;;;;;;;;;;;7.33;100.00;102586.66;5031642;28;19956;-73
2023/05/19 02:28:05;;;;;;;;;;;;;;;7.37;100.00;102592.78;5032144;28;20015;-73
2023/05/19 02:30:31;;;;;;;;;;;;;;;7.33;100.00;102590.22;5032001;28;20011;-74
2023/05/19 02:32:56;;;;;;;;;;;;;;;7.29;100.00;102590.38;5026362;28;19924;-73
2023/05/19 02:35:21;;;;;;;;;;;;;;;7.29;100.00;102585.91;5052534;28;20609;-73
2023/05/19 02:37:46;;;;;;;;;;;;;;;7.24;100.00;102587.00;5032280;28;20377;-74
2023/05/19 02:40:11;;;;;;;;;;;;;;;7.17;100.00;102583.66;5051654;28;19927;-74
2023/05/19 02:42:37;;;;;;;;;;;;;;;7.18;100.00;102583.63;5033532;28;20374;-74
2023/05/19 02:45:02;;;;;;;;;;;;;;;7.22;100.00;102589.72;5031332;28;19963;-74
2023/05/19 02:47:27;;;;;;;;;;;;;;;7.15;100.00;102575.72;5033152;28;19967;-74
2023/05/19 02:49:52;;;;;;;;;;;;;;;7.12;100.00;102573.16;5035765;28;20008;-73
2023/05/19 02:52:18;;;;;;;;;;;;;;;7.12;100.00;102574.97;5032170;28;20044;-74
2023/05/19 02:54:43;;;;;;;;;;;;;;;7.13;100.00;102576.72;5033861;28;19924;-74
2023/05/19 02:57:09;;;;;;;;;;;;;;;7.08;100.00;102579.53;5036380;28;20475;-73
2023/05/19 02:59:35;;;;;;;;;;;;;;;7.04;100.00;102575.22;5032741;28;19923;-73
2023/05/19 03:02:00;;;;;;;;;;;;;;;6.99;100.00;102575.38;5028950;28;20314;-74
2023/05/19 03:04:26;;;;;;;;;;;;;;;6.92;100.00;102568.50;5049840;28;20399;-73
2023/05/19 03:06:52;;;;;;;;;;;;;;;6.95;100.00;102564.88;5052653;28;20426;-71
2023/05/19 03:09:18;;;;;;;;;;;;;;;6.87;100.00;102568.69;5049601;28;19921;-74
2023/05/19 03:11:43;;;;;;;;;;;;;;;6.86;100.00;102563.41;5042828;28;19989;-73
2023/05/19 03:14:08;;;;;;;;;;;;;;;6.86;100.00;102566.06;5034402;28;19940;-74
2023/05/19 03:16:34;;;;;;;;;;;;;;;6.84;100.00;102567.91;5038866;28;20024;-74
2023/05/19 03:18:59;;;;;;;;;;;;;;;6.78;100.00;102576.13;5036631;28;19924;-74
2023/05/19 03:21:24;;;;;;;;;;;;;;;6.87;100.00;102578.50;5031756;28;19963;-74
2023/05/19 03:23:49;;;;;;;;;;;;;;;6.75;100.00;102575.31;5033489;28;20274;-73
2023/05/19 03:26:15;;;;;;;;;;;;;;;6.81;100.00;102576.88;5033918;28;19932;-73
2023/05/19 03:28:40;;;;;;;;;;;;;;;6.84;100.00;102571.44;5017390;28;19932;-73
2023/05/19 03:31:05;;;;;;;;;;;;;;;6.84;100.00;102574.13;5045547;28;20425;-74
2023/05/19 03:33:30;;;;;;;;;;;;;;;6.78;100.00;102573.47;5028569;28;20295;-74
2023/05/19 03:35:56;;;;;;;;;;;;;;;6.80;100.00;102579.63;5018246;28;20011;-74
2023/05/19 03:38:21;;;;;;;;;;;;;;;6.78;100.00;102582.31;5014296;28;19955;-74
2023/05/19 03:40:46;;;;;;;;;;;;;;;6.74;100.00;102581.56;5029914;28;20375;-73
2023/05/19 03:43:12;;;;;;;;;;;;;;;6.79;100.00;102578.72;5049073;28;20374;-73
2023/05/19 03:45:37;;;;;;;;;;;;;;;6.77;100.00;102579.72;5034531;28;20263;-74
2023/05/19 03:48:02;;;;;;;;;;;;;;;6.79;100.00;102589.41;5032245;28;20015;-73
2023/05/19 03:50:27;;;;;;;;;;;;;;;6.78;100.00;102587.66;5046243;28;19921;-74
2023/05/19 03:52:54;;;;;;;;;;;;;;;6.77;100.00;102587.72;5033410;28;20350;-74
2023/05/19 03:55:20;;;;;;;;;;;;;;;6.80;100.00;102596.50;5030612;28;20442;-72
2023/05/19 03:57:45;;;;;;;;;;;;;;;6.79;100.00;102594.75;5030744;28;20009;-74
2023/05/19 04:00:11;;;;;;;;;;;;;;;6.83;100.00;102599.06;5031544;28;20012;-73
2023/05/19 04:02:36;;;;;;;;;;;;;;;6.82;100.00;102597.31;5034814;28;19932;-73
2023/05/19 04:05:03;;;;;;;;;;;;;;;6.84;100.00;102598.16;5028648;28;19917;-74
2023/05/19 04:07:29;;;;;;;;;;;;;;;6.83;100.00;102601.75;5014318;28;19931;-74
2023/05/19 04:09:54;;;;;;;;;;;;;;;6.87;100.00;102592.69;5027724;28;19921;-73
2023/05/19 04:12:19;;;;;;;;;;;;;;;6.88;100.00;102599.78;5032350;28;19967;-74
2023/05/19 04:14:44;;;;;;;;;;;;;;;6.92;100.00;102603.22;5032522;28;20446;-74
2023/05/19 04:17:10;;;;;;;;;;;;;;;6.96;100.00;102601.34;5063052;28;19928;-73
2023/05/19 04:19:35;;;;;;;;;;;;;;;6.97;100.00;102603.94;5028171;28;20301;-74
2023/05/19 04:22:00;;;;;;;;;;;;;;;6.99;100.00;102599.41;5030587;28;20067;-73
2023/05/19 04:24:25;;;;;;;;;;;;;;;6.97;100.00;102597.75;5026400;28;19921;-74
2023/05/19 04:26:51;;;;;;;;;;;;;;;6.97;100.00;102603.09;5033315;28;19964;-74
2023/05/19 04:29:16;;;;;;;;;;;;;;;6.99;100.00;102595.91;5027229;28;19927;-73
2023/05/19 04:31:43;;;;;;;;;;;;;;;7.01;100.00;102588.72;5034569;28;20347;-72
2023/05/19 04:34:08;;;;;;;;;;;;;;;7.08;100.00;102598.22;5030313;28;20446;-72
2023/05/19 04:36:34;;;;;;;;;;;;;;;7.13;100.00;102595.41;5034992;28;19980;-72
2023/05/19 04:39:02;;;;;;;;;;;;;;;7.19;100.00;102595.16;5028215;28;21654;-73
2023/05/19 04:41:27;;;;;;;;;;;;;;;7.21;100.00;102590.66;5034940;28;19925;-73
2023/05/19 04:43:52;;;;;;;;;;;;;;;7.26;100.00;102594.03;5025414;28;20445;-73
2023/05/19 04:46:22;;;;;;;;;;;;;;;7.26;100.00;102593.19;5029806;28;20268;-73
2023/05/19 04:48:48;;;;;;;;;;;;;;;7.24;100.00;102590.53;5032435;28;20588;-73
2023/05/19 04:51:14;;;;;;;;;;;;;;;7.26;100.00;102587.84;5028683;28;19932;-73
2023/05/19 04:53:39;;;;;;;;;;;;;;;7.34;100.00;102596.44;5031089;28;19925;-72
2023/05/19 04:56:05;;;;;;;;;;;;;;;7.36;100.00;102591.91;5028417;28;19921;-73
2023/05/19 04:58:30;;;;;;;;;;;;;;;7.38;100.00;102590.03;5027224;28;19917;-73
2023/05/19 05:00:56;;;;;;;;;;;;;;;7.44;100.00;102589.84;5028767;28;20393;-73
2023/05/19 05:03:23;;;;;;;;;;;;;;;7.45;100.00;102601.38;5029897;28;19953;-73
2023/05/19 05:05:48;;;;;;;;;;;;;;;7.54;100.00;102598.38;5025782;28;19928;-73
2023/05/19 05:08:15;;;;;;;;;;;;;;;7.57;100.00;102595.59;5026750;28;19925;-73
2023/05/19 05:10:40;;;;;;;;;;;;;;;7.63;100.00;102595.38;5029378;28;20008;-74
2023/05/19 05:13:05;;;;;;;;;;;;;;;7.67;100.00;102596.13;5014762;28;19925;-73
2023/05/19 05:15:31;;;;;;;;;;;;;;;7.79;100.00;102598.34;5028477;28;20434;-74
2023/05/19 05:17:56;;;;;;;;;;;;;;;7.91;100.00;102601.47;5029733;28;19928;-73
2023/05/19 05:20:21;;;;;;;;;;;;;;;8.03;100.00;102594.78;5029510;28;20049;-73
2023/05/19 05:22:47;;;;;;;;;;;;;;;8.13;100.00;102603.31;5028945;28;20001;-73
2023/05/19 05:25:12;;;;;;;;;;;;;;;8.21;100.00;102601.22;5049391;28;20217;-73
2023/05/19 05:27:38;;;;;;;;;;;;;;;8.31;100.00;102599.03;5015104;28;20022;-73
2023/05/19 05:30:03;;;;;;;;;;;;;;;8.44;100.00;102600.28;5028925;28;19960;-73
2023/05/19 05:32:28;;;;;;;;;;;;;;;8.50;100.00;102600.06;5029335;28;20607;-73
2023/05/19 05:34:54;;;;;;;;;;;;;;;8.68;100.00;102586.88;5031698;28;19925;-73
2023/05/19 05:37:19;;;;;;;;;;;;;;;8.76;100.00;102587.38;5025510;28;20426;-72
2023/05/19 05:39:44;;;;;;;;;;;;;;;8.93;100.00;102593.84;5023715;28;20413;-73
2023/05/19 05:42:09;;;;;;;;;;;;;;;9.11;100.00;102601.09;5022490;28;19925;-71
2023/05/19 05:44:35;;;;;;;;;;;;;;;9.25;100.00;102595.13;5034472;28;20031;-72
2023/05/19 05:47:00;;;;;;;;;;;;;;;9.41;100.00;102606.03;5032698;28;20351;-72
2023/05/19 05:49:25;;;;;;;;;;;;;;;9.45;100.00;102599.59;5033644;28;19920;-72
2023/05/19 05:51:51;;;;;;;;;;;;;;;9.62;100.00;102603.31;5032227;28;20070;-71
2023/05/19 05:54:16;;;;;;;;;;;;;;;9.68;100.00;102592.31;5030369;28;20374;-72
2023/05/19 05:56:41;;;;;;;;;;;;;;;9.83;100.00;102595.22;5033765;28;20417;-71
2023/05/19 05:59:06;;;;;;;;;;;;;;;9.93;100.00;102585.81;5027393;28;20452;-73
2023/05/19 06:01:32;;;;;;;;;;;;;;;10.03;100.00;102592.50;5030854;28;19921;-72
2023/05/19 06:03:57;;;;;;;;;;;;;;;10.14;100.00;102586.59;5030083;28;19921;-71
2023/05/19 06:06:22;;;;;;;;;;;;;;;10.28;100.00;102582.38;5049428;28;19921;-73
2023/05/19 06:08:47;;;;;;;;;;;;;;;10.47;100.00;102585.06;5052093;28;20016;-71
2023/05/19 06:11:13;;;;;;;;;;;;;;;10.48;100.00;102560.81;5033198;28;19921;-71
2023/05/19 06:13:40;;;;;;;;;;;;;;;10.56;100.00;102584.63;5031237;28;20411;-73
2023/05/19 06:16:05;;;;;;;;;;;;;;;10.80;100.00;102579.81;5036742;28;19928;-74
2023/05/19 06:18:30;;;;;;;;;;;;;;;10.80;100.00;102578.94;5037406;28;19936;-72
2023/05/19 06:20:55;;;;;;;;;;;;;;;10.95;100.00;102586.22;5046194;28;20004;-72
2023/05/19 06:23:21;;;;;;;;;;;;;;;11.14;100.00;102590.63;5033605;28;20438;-73
2023/05/19 06:25:46;;;;;;;;;;;;;;;11.25;100.00;102593.63;5042093;28;19931;-72
2023/05/19 06:28:11;;;;;;;;;;;;;;;11.35;100.00;102596.69;5030773;28;20376;-72
2023/05/19 06:30:36;;;;;;;;;;;;;;;11.31;100.00;102589.72;5026794;28;20469;-73
2023/05/19 06:33:04;;;;;;;;;;;;;;;11.38;100.00;102601.06;5031791;28;19979;-72
2023/05/19 06:35:30;;;;;;;;;;;;;;;11.58;100.00;102591.03;5016982;28;20290;-72
2023/05/19 06:37:55;;;;;;;;;;;;;;;11.70;100.00;102593.03;5032740;28;19921;-72
2023/05/19 06:40:21;;;;;;;;;;;;;;;11.81;100.00;102593.34;5033457;28;19925;-71
2023/05/19 06:42:46;;;;;;;;;;;;;;;11.79;100.00;102599.72;5031372;28;19969;-72
2023/05/19 06:45:11;;;;;;;;;;;;;;;11.79;100.00;102592.53;5026526;28;19928;-72
2023/05/19 06:47:37;;;;;;;;;;;;;;;11.62;100.00;102593.47;5032651;28;19921;-71
2023/05/19 06:50:02;;;;;;;;;;;;;;;11.76;100.00;102599.94;5038193;28;19931;-70
2023/05/19 06:52:27;;;;;;;;;;;;;;;11.83;100.00;102604.00;5028769;28;20015;-72
2023/05/19 06:54:52;;;;;;;;;;;;;;;11.81;100.00;102604.09;5023080;28;19921;-75
2023/05/19 06:57:18;;;;;;;;;;;;;;;11.76;100.00;102598.09;5031798;28;19927;-72
2023/05/19 06:59:45;;;;;;;;;;;;;;;11.88;100.00;102604.63;5026360;28;19925;-73
2023/05/19 07:02:10;;;;;;;;;;;;;;;11.96;100.00;102597.00;5026918;28;20038;-71
2023/05/19 07:04:35;;;;;;;;;;;;;;;12.08;100.00;102594.59;5027612;28;19955;-71
2023/05/19 07:07:01;;;;;;;;;;;;;;;12.00;100.00;102598.59;5027834;28;19921;-72
2023/05/19 07:09:26;;;;;;;;;;;;;;;12.15;100.00;102601.38;5030760;28;19971;-71
2023/05/19 07:11:51;;;;;;;;;;;;;;;12.25;100.00;102596.34;5029122;28;20240;-70
2023/05/19 07:14:16;;;;;;;;;;;;;;;12.23;100.00;102592.84;5027456;28;20150;-72
2023/05/19 07:16:41;;;;;;;;;;;;;;;12.43;100.00;102594.41;5031492;28;19920;-73
2023/05/19 07:19:07;;;;;;;;;;;;;;;12.70;100.00;102596.44;5031306;28;19927;-72
2023/05/19 07:21:32;;;;;;;;;;;;;;;12.78;100.00;102596.88;5027268;28;19924;-71
2023/05/19 07:23:57;;;;;;;;;;;;;;;12.99;100.00;102594.69;5024295;28;20322;-72
2023/05/19 07:26:22;;;;;;;;;;;;;;;13.06;98.16;102589.84;5029636;28;19956;-72
2023/05/19 07:28:48;;;;;;;;;;;;;;;13.21;100.00;102596.13;5026846;28;20023;-71
2023/05/19 07:31:13;;;;;;;;;;;;;;;13.46;97.13;102600.88;5025408;28;20373;-72
2023/05/19 07:33:39;;;;;;;;;;;;;;;13.68;94.80;102594.13;5025045;28;19925;-70
2023/05/19 07:36:04;;;;;;;;;;;;;;;13.97;96.12;102596.81;5027616;28;19986;-72
2023/05/19 07:38:33;;;;;;;;;;;;;;;14.17;86.92;102590.13;5026800;28;19924;-71
2023/05/19 07:40:58;;;;;;;;;;;;;;;14.21;86.63;102593.47;5025558;28;20038;-73
2023/05/19 07:43:23;;;;;;;;;;;;;;;14.17;88.31;102594.69;5028095;28;20099;-72
2023/05/19 07:45:48;;;;;;;;;;;;;;;14.36;90.09;102592.50;5031672;28;20264;-73
2023/05/19 07:48:14;;;;;;;;;;;;;;;14.59;91.58;102590.09;5011366;28;19925;-71
2023/05/19 07:50:39;;;;;;;;;;;;;;;14.46;82.93;102586.44;5022153;28;19943;-70
2023/05/19 07:53:04;;;;;;;;;;;;;;;14.20;86.30;102589.03;5027767;28;20355;-72
2023/05/19 07:55:30;;;;;;;;;;;;;;;14.23;82.43;102591.56;5037655;28;19921;-70
2023/05/19 07:57:56;;;;;;;;;;;;;;;14.35;82.60;102592.56;5026085;28;20010;-71
2023/05/19 08:00:21;;;;;;;;;;;;;;;14.61;85.28;102584.56;5028944;28;20383;-72
2023/05/19 08:02:46;;;;;;;;;;;;;;;14.54;78.95;102581.41;5028393;28;20324;-73
2023/05/19 08:05:11;;;;;;;;;;;;;;;14.29;77.82;102582.19;5028219;28;20051;-71
2023/05/19 08:07:37;;;;;;;;;;;;;;;14.50;82.71;102580.75;5043507;28;19928;-70
2023/05/19 08:10:02;;;;;;;;;;;;;;;14.66;80.76;102577.91;5021800;28;19983;-78
2023/05/19 08:12:27;;;;;;;;;;;;;;;14.92;76.52;102571.69;5024009;28;19935;-75
2023/05/19 08:14:53;;;;;;;;;;;;;;;15.01;79.13;102573.78;5025226;28;19925;-72
2023/05/19 08:17:18;;;;;;;;;;;;;;;15.09;73.65;102571.41;5029035;28;20329;-73
2023/05/19 08:19:43;;;;;;;;;;;;;;;15.35;70.00;102568.72;5028587;28;20631;-72
2023/05/19 08:22:08;;;;;;;;;;;;;;;15.60;70.38;102566.97;5032014;28;20385;-73
2023/05/19 08:24:33;;;;;;;;;;;;;;;15.56;68.50;102563.59;5011801;28;20382;-71
2023/05/19 08:26:59;;;;;;;;;;;;;;;15.83;68.87;102561.72;5029744;28;20454;-72
2023/05/19 08:29:24;;;;;;;;;;;;;;;15.70;65.74;102561.75;5032193;28;19925;-73
2023/05/19 08:31:49;;;;;;;;;;;;;;;15.97;70.43;102556.16;5029359;28;20315;-71
2023/05/19 08:34:15;;;;;;;;;;;;;;;16.11;62.58;102557.00;5027215;28;20011;-72
2023/05/19 08:36:40;;;;;;;;;;;;;;;15.85;62.08;102554.34;5021875;28;19924;-74
2023/05/19 08:39:05;;;;;;;;;;;;;;;15.89;62.84;102554.03;5028404;28;19924;-72
2023/05/19 08:41:31;;;;;;;;;;;;;;;16.14;67.20;102543.22;5030879;28;19963;-72
2023/05/19 08:43:56;;;;;;;;;;;;;;;16.13;62.67;102544.22;5023377;28;20321;-71
2023/05/19 08:46:22;;;;;;;;;;;;;;;16.24;65.70;102532.56;5030500;28;19920;-71
2023/05/19 08:48:48;;;;;;;;;;;;;;;16.60;67.20;102528.88;5040961;28;19924;-73
2023/05/19 08:51:22;;;;;;;;;;;;;;;16.73;63.10;102523.38;5040300;28;20030;-74
2023/05/19 08:53:47;;;;;;;;;;;;;;;16.91;66.68;102520.22;5023170;28;19986;-72
2023/05/19 08:56:13;;;;;;;;;;;;;;;17.12;63.94;102522.25;5046284;28;20534;-73
2023/05/19 08:58:39;;;;;;;;;;;;;;;17.21;62.55;102521.50;5021784;28;20569;-72
2023/05/19 09:01:05;;;;;;;;;;;;;;;17.35;62.57;102523.97;5028458;28;19955;-71
2023/05/19 09:03:31;;;;;;;;;;;;;;;17.41;60.06;102529.91;5039186;28;20339;-74
2023/05/19 09:05:56;;;;;;;;;;;;;;;17.28;56.79;102522.75;5018086;28;19928;-74
2023/05/19 09:08:21;;;;;;;;;;;;;;;17.37;57.44;102530.16;5027860;28;19925;-74
2023/05/19 09:10:47;;;;;;;;;;;;;;;17.73;58.44;102519.16;5029237;28;19920;-74
2023/05/19 09:13:12;;;;;;;;;;;;;;;17.82;57.64;102512.09;5024271;28;20228;-73
2023/05/19 09:15:37;;;;;;;;;;;;;;;17.89;50.52;102516.03;5030115;28;19927;-76
2023/05/19 09:18:10;;;;;;;;;;;;;;;18.16;53.49;102511.19;5029889;28;19928;-72
2023/05/19 09:20:39;;;;;;;;;;;;;;;18.21;54.71;102508.94;5029486;28;19932;-70
2023/05/19 09:23:04;;;;;;;;;;;;;;;18.24;53.15;102514.13;5031010;28;19925;-72
2023/05/19 09:25:30;;;;;;;;;;;;;;;18.20;51.54;102507.22;5030113;28;19936;-71
2023/05/19 09:27:56;;;;;;;;;;;;;;;18.27;50.64;102497.56;5033809;28;19935;-70
2023/05/19 09:30:22;;;;;;;;;;;;;;;17.96;49.10;102497.38;5029717;28;19920;-73
2023/05/19 09:32:47;;;;;;;;;;;;;;;18.19;48.67;102505.47;5005254;28;20009;-73
2023/05/19 09:35:12;;;;;;;;;;;;;;;18.39;53.95;102499.22;5027080;28;20181;-73
2023/05/19 09:37:38;;;;;;;;;;;;;;;18.46;49.68;102485.94;5011611;28;19927;-71
2023/05/19 09:40:04;;;;;;;;;;;;;;;18.77;52.14;102502.34;5026871;28;19925;-74
2023/05/19 09:42:30;;;;;;;;;;;;;;;18.73;53.74;102490.88;5025178;28;20365;-75
2023/05/19 09:45:00;;;;;;;;;;;;;;;18.68;49.45;102493.13;5022871;28;19971;-73
2023/05/19 09:47:26;;;;;;;;;;;;;;;18.84;50.38;102483.63;5029112;28;19927;-70
2023/05/19 09:49:52;;;;;;;;;;;;;;;18.71;50.07;102484.72;5024228;28;19982;-74
2023/05/19 09:52:17;;;;;;;;;;;;;;;18.51;51.10;102485.56;5023179;28;20398;-70
2023/05/19 09:54:43;;;;;;;;;;;;;;;18.94;50.40;102489.13;5023782;28;22500;-74
2023/05/19 09:57:08;;;;;;;;;;;;;;;19.32;48.10;102493.06;5026799;28;19986;-73
2023/05/19 09:59:34;;;;;;;;;;;;;;;19.26;47.01;102496.31;5023194;28;19963;-72
2023/05/19 10:01:59;;;;;;;;;;;;;;;19.41;45.75;102489.53;5026987;28;19924;-73
2023/05/19 10:04:25;;;;;;;;;;;;;;;19.34;46.57;102486.47;5024072;28;19932;-72
2023/05/19 10:06:52;;;;;;;;;;;;;;;19.37;55.29;102489.91;5026789;28;19924;-73
2023/05/19 10:09:18;;;;;;;;;;;;;;;19.21;47.22;102490.44;5025631;28;19927;-73
2023/05/19 10:11:43;;;;;;;;;;;;;;;19.74;47.09;102492.06;5027142;28;20417;-73
2023/05/19 10:14:09;;;;;;;;;;;;;;;19.82;46.23;102491.34;5030774;28;19960;-71
2023/05/19 10:16:34;;;;;;;;;;;;;;;20.22;49.28;102495.88;5030537;28;20340;-72
2023/05/19 10:18:59;;;;;;;;;;;;;;;20.43;46.66;102473.88;5030249;28;19924;-72
2023/05/19 10:21:24;;;;;;;;;;;;;;;20.25;45.35;102492.88;5027261;28;19924;-73
2023/05/19 10:23:50;;;;;;;;;;;;;;;20.11;44.71;102488.72;5024373;28;20323;-70
2023/05/19 10:26:15;;;;;;;;;;;;;;;20.48;44.76;102471.59;5039563;28;20022;-70
2023/05/19 10:28:40;;;;;;;;;;;;;;;20.70;45.30;102465.97;5040063;28;20369;-72
2023/05/19 10:31:06;;;;;;;;;;;;;;;20.00;41.33;102473.31;5046010;28;19968;-73
2023/05/19 10:33:46;;;;;;;;;;;;;;;19.99;44.02;102473.47;5020590;28;19940;-72
2023/05/19 10:36:11;;;;;;;;;;;;;;;20.01;41.72;102474.19;5043783;28;20025;-72
2023/05/19 10:38:47;;;;;;;;;;;;;;;20.28;43.63;102476.19;5029011;28;20567;-70
2023/05/19 10:41:12;;;;;;;;;;;;;;;20.63;42.47;102471.16;5030987;28;19944;-74
2023/05/19 10:43:37;;;;;;;;;;;;;;;20.63;44.61;102469.28;5025713;28;19920;-70
2023/05/19 10:46:02;;;;;;;;;;;;;;;21.19;42.44;102471.31;5032289;28;19990;-74
2023/05/19 10:48:27;;;;;;;;;;;;;;;21.68;44.27;102463.75;5026314;28;19925;-71
2023/05/19 10:50:53;;;;;;;;;;;;;;;21.28;41.63;102465.78;5028708;28;20476;-71
2023/05/19 10:53:20;;;;;;;;;;;;;;;20.53;40.43;102460.22;5041650;28;20405;-72
2023/05/19 10:55:46;;;;;;;;;;;;;;;20.73;39.46;102452.03;5026934;28;20023;-72
2023/05/19 10:58:11;;;;;;;;;;;;;;;21.53;39.92;102446.09;5027559;28;19924;-72
2023/05/19 11:00:37;;;;;;;;;;;;;;;21.86;41.90;102441.84;5032940;28;20417;-73
2023/05/19 11:03:12;;;;;;;;;;;;;;;22.38;41.12;102434.78;5028312;28;20134;-72
2023/05/19 11:05:37;;;;;;;;;;;;;;;22.71;40.69;102450.63;5031582;28;20434;-74
2023/05/19 11:08:04;;;;;;;;;;;;;;;23.19;38.50;102448.31;5013131;28;20002;-73
2023/05/19 11:10:30;;;;;;;;;;;;;;;23.17;40.04;102443.00;5030286;28;19920;-74
2023/05/19 11:12:57;;;;;;;;;;;;;;;22.65;37.45;102438.44;5027867;28;19935;-68
2023/05/19 11:15:24;;;;;;;;;;;;;;;23.48;40.39;102452.56;5032135;28;20227;-73
2023/05/19 11:17:49;;;;;;;;;;;;;;;23.63;38.22;102442.69;5027156;28;19921;-70
2023/05/19 11:20:22;;;;;;;;;;;;;;;24.29;36.80;102435.56;5030788;28;19924;-71
2023/05/19 11:23:06;;;;;;;;;;;;;;;24.05;36.67;102435.41;5026909;28;20282;-73
2023/05/19 11:25:41;;;;;;;;;;;;;;;24.70;35.60;102439.09;5032362;28;19932;-72
2023/05/19 11:28:07;;;;;;;;;;;;;;;24.51;34.47;102437.59;5032315;28;20568;-74
2023/05/19 11:30:32;;;;;;;;;;;;;;;24.16;35.68;102436.06;5045297;28;20439;-73
2023/05/19 11:32:57;;;;;;;;;;;;;;;23.66;35.04;102441.47;5043540;28;19924;-74
2023/05/19 11:35:22;;;;;;;;;;;;;;;24.16;37.72;102441.56;5028506;28;19925;-74
2023/05/19 11:37:49;;;;;;;;;;;;;;;24.96;34.20;102434.44;5029232;28;19974;-74
2023/05/19 11:40:14;;;;;;;;;;;;;;;24.99;38.04;102425.84;5029474;28;19920;-75
2023/05/19 11:42:39;;;;;;;;;;;;;;;26.05;34.24;102428.16;5036343;28;19947;-72
2023/05/19 11:45:05;;;;;;;;;;;;;;;24.73;34.92;102423.34;5037526;28;19925;-71
2023/05/19 11:47:32;;;;;;;;;;;;;;;25.13;32.44;102435.25;5027423;28;20492;-72
2023/05/19 11:49:57;;;;;;;;;;;;;;;25.44;33.21;102426.16;5032138;28;19928;-76
2023/05/19 11:52:23;;;;;;;;;;;;;;;26.32;34.33;102426.78;5015036;28;19928;-73
2023/05/19 11:54:48;;;;;;;;;;;;;;;25.18;34.51;102423.72;5030299;28;19924;-74
2023/05/19 11:57:14;;;;;;;;;;;;;;;25.22;34.43;102420.41;5028135;28;20011;-74
2023/05/19 11:59:44;;;;;;;;;;;;;;;26.14;31.97;102412.47;5028555;28;20323;-74
2023/05/19 12:02:19;;;;;;;;;;;;;;;26.06;33.27;102405.13;5027804;28;19982;-73
2023/05/19 12:04:45;;;;;;;;;;;;;;;26.39;32.52;102404.84;5013884;28;20585;-74
2023/05/19 12:07:16;;;;;;;;;;;;;;;25.58;31.53;102411.66;5030118;28;20055;-74
2023/05/19 12:09:41;;;;;;;;;;;;;;;26.34;32.36;102407.31;5040736;28;19925;-73
2023/05/19 12:12:06;;;;;;;;;;;;;;;26.51;32.22;102396.97;5027170;28;20325;-74
2023/05/19 12:14:31;;;;;;;;;;;;;;;27.49;34.06;102407.84;5029324;28;19921;-74
2023/05/19 12:16:57;;;;;;;;;;;;;;;26.82;31.49;102398.72;5028828;28;20004;-73
2023/05/19 12:19:22;;;;;;;;;;;;;;;26.91;32.33;102394.81;5026221;28;20015;-73
2023/05/19 12:21:48;;;;;;;;;;;;;;;27.10;30.31;102401.63;5030594;28;19924;-73
2023/05/19 12:24:13;;;;;;;;;;;;;;;26.30;29.72;102408.72;5046177;28;19948;-74
2023/05/19 12:26:39;;;;;;;;;;;;;;;26.99;31.27;102401.28;5022663;28;19925;-73
2023/05/19 12:29:05;;;;;;;;;;;;;;;26.18;31.10;102394.53;5026609;28;20315;-71